Time;durP1;ratioP1;P1;durP2;ratioP2;P2;SDS_P1;SDS_P2;PMS_P1;PMS_P2;Temp;Humidity;BMP_temperature;BMP_pressure;BME280_temperature;BME280_humidity;BME280_pressure;Samples;Min_cycle;Max_cycle;Signal;HPM_P1;HPM_P2
2022/07/18 00:02:20;;;;;;;1999.90;999.90;;;14.30;67.00;;;;;;5075046;28;20085;-80
2022/07/18 00:04:45;;;;;;;1999.90;999.90;;;14.30;67.00;;;;;;5094903;28;20457;-82
2022/07/18 00:07:11;;;;;;;1999.90;999.90;;;14.20;68.90;;;;;;5084832;28;20105;-82
2022/07/18 00:09:39;;;;;;;1999.90;999.90;;;14.30;69.30;;;;;;5056517;28;20035;-82
2022/07/18 00:12:06;;;;;;;1999.90;999.90;;;14.20;66.30;;;;;;5079766;28;20088;-82
2022/07/18 00:14:32;;;;;;;1999.90;999.90;;;14.20;67.20;;;;;;5098760;28;20040;-82
2022/07/18 00:16:58;;;;;;;1999.90;999.90;;;14.30;68.30;;;;;;5074080;28;20062;-82
2022/07/18 00:19:25;;;;;;;1999.90;999.90;;;14.30;67.90;;;;;;5067022;28;20039;-82
2022/07/18 00:21:51;;;;;;;1999.90;999.90;;;14.20;67.20;;;;;;5094731;28;20060;-82
2022/07/18 00:24:16;;;;;;;1999.90;999.90;;;14.30;67.80;;;;;;5057583;28;20064;-82
2022/07/18 00:26:42;;;;;;;1999.90;999.90;;;14.30;68.30;;;;;;5062374;28;20066;-82
2022/07/18 00:29:08;;;;;;;1999.90;999.90;;;14.20;68.80;;;;;;5082420;28;20054;-84
2022/07/18 00:31:35;;;;;;;1999.90;999.90;;;14.10;71.10;;;;;;5096752;28;20737;-81
2022/07/18 00:34:01;;;;;;;1999.90;999.90;;;13.80;72.70;;;;;;5093476;28;20029;-82
2022/07/18 00:36:28;;;;;;;1999.90;999.90;;;13.70;73.50;;;;;;5094771;28;20024;-82
2022/07/18 00:38:53;;;;;;;1999.90;999.90;;;13.60;74.30;;;;;;5089240;28;20114;-82
2022/07/18 00:41:19;;;;;;;1999.90;999.90;;;13.50;71.90;;;;;;5082566;28;20601;-83
2022/07/18 00:43:45;;;;;;;1999.90;999.90;;;13.50;72.60;;;;;;5081620;28;20036;-82
2022/07/18 00:46:11;;;;;;;1999.90;999.90;;;13.50;72.00;;;;;;5105969;28;20384;-83
2022/07/18 00:48:41;;;;;;;1999.90;999.90;;;13.50;73.00;;;;;;5082452;28;20050;-82
2022/07/18 00:51:07;;;;;;;1999.90;999.90;;;13.50;72.10;;;;;;5087515;28;20035;-82
2022/07/18 00:53:33;;;;;;;1999.90;999.90;;;13.60;72.60;;;;;;5083313;28;20040;-81
2022/07/18 00:56:00;;;;;;;1999.90;999.90;;;13.70;70.50;;;;;;5083867;28;20034;-83
2022/07/18 00:58:26;;;;;;;1999.90;999.90;;;13.70;71.60;;;;;;5101615;28;20080;-82
2022/07/18 01:03:37;;;;;;;1999.90;999.90;;;13.50;75.00;;;;;;5095147;28;20073;-83
2022/07/18 01:06:02;;;;;;;1999.90;999.90;;;13.20;76.50;;;;;;5059298;28;20048;-82
2022/07/18 01:08:29;;;;;;;1999.90;999.90;;;13.20;77.40;;;;;;5056888;28;20115;-82
2022/07/18 01:10:55;;;;;;;1999.90;999.90;;;13.00;78.70;;;;;;5084291;28;20089;-83
2022/07/18 01:13:21;;;;;;;1999.90;999.90;;;12.90;79.00;;;;;;5084391;28;20035;-83
2022/07/18 01:15:46;;;;;;;1999.90;999.90;;;12.80;80.20;;;;;;5072587;28;20067;-83
2022/07/18 01:18:12;;;;;;;1999.90;999.90;;;12.80;80.50;;;;;;5082069;28;20028;-82
2022/07/18 01:20:38;;;;;;;1999.90;999.90;;;12.80;80.40;;;;;;5082826;28;20031;-82
2022/07/18 01:23:04;;;;;;;1999.90;999.90;;;12.70;80.90;;;;;;5099070;28;20592;-82
2022/07/18 01:25:29;;;;;;;1999.90;999.90;;;12.80;77.00;;;;;;5082931;28;20483;-83
2022/07/18 01:27:56;;;;;;;1999.90;999.90;;;13.00;75.10;;;;;;5100612;28;20074;-82
2022/07/18 01:30:23;;;;;;;1999.90;999.90;;;13.30;74.70;;;;;;5074949;28;20479;-82
2022/07/18 01:32:59;;;;;;;1999.90;999.90;;;13.30;73.90;;;;;;5090963;28;20032;-82
2022/07/18 01:35:25;;;;;;;1999.90;999.90;;;13.30;77.00;;;;;;5093375;28;20127;-83
2022/07/18 01:37:52;;;;;;;1999.90;999.90;;;13.20;76.50;;;;;;5092100;28;20032;-83
2022/07/18 01:40:18;;;;;;;1999.90;999.90;;;13.20;77.30;;;;;;5081664;28;20034;-82
2022/07/18 01:42:44;;;;;;;1999.90;999.90;;;13.10;77.60;;;;;;5087568;28;20028;-82
2022/07/18 01:45:10;;;;;;;1999.90;999.90;;;12.90;78.40;;;;;;5083225;28;20038;-82
2022/07/18 01:47:35;;;;;;;1999.90;999.90;;;12.80;80.30;;;;;;5080092;28;20035;-82
2022/07/18 01:50:01;;;;;;;1999.90;999.90;;;12.60;81.80;;;;;;5096770;28;20046;-83
2022/07/18 01:52:26;;;;;;;1999.90;999.90;;;12.50;81.80;;;;;;5098111;28;20024;-82
2022/07/18 01:54:52;;;;;;;1999.90;999.90;;;12.40;82.40;;;;;;5082765;28;20036;-82
2022/07/18 01:57:18;;;;;;;1999.90;999.90;;;12.40;82.10;;;;;;5079417;28;20024;-82
2022/07/18 01:59:44;;;;;;;1999.90;999.90;;;12.30;82.40;;;;;;5056963;28;20032;-82
2022/07/18 02:02:10;;;;;;;1999.90;999.90;;;12.40;82.00;;;;;;5060930;28;20035;-83
2022/07/18 02:07:20;;;;;;;1999.90;999.90;;;12.40;79.40;;;;;;5093916;28;20513;-82
2022/07/18 02:09:45;;;;;;;1999.90;999.90;;;12.50;78.00;;;;;;5077408;28;20036;-82
2022/07/18 02:12:11;;;;;;;1999.90;999.90;;;12.60;78.80;;;;;;5082421;28;20040;-82
2022/07/18 02:14:37;;;;;;;1999.90;999.90;;;12.60;79.10;;;;;;5086500;28;20738;-81
2022/07/18 02:17:02;;;;;;;1999.90;999.90;;;12.60;80.70;;;;;;5087966;28;20088;-82
2022/07/18 02:19:28;;;;;;;1999.90;999.90;;;12.50;81.80;;;;;;5099983;28;20107;-82
2022/07/18 02:21:54;;;;;;;1999.90;999.90;;;12.40;82.00;;;;;;5096660;28;20031;-85
2022/07/18 02:24:19;;;;;;;1999.90;999.90;;;12.30;82.60;;;;;;5089524;28;20089;-83
2022/07/18 02:26:45;;;;;;;1999.90;999.90;;;12.30;82.50;;;;;;5099156;28;20061;-82
2022/07/18 02:29:11;;;;;;;1999.90;999.90;;;12.30;82.90;;;;;;5056651;28;20480;-81
2022/07/18 02:31:36;;;;;;;1999.90;999.90;;;12.30;83.80;;;;;;5074944;28;20427;-82
2022/07/18 02:34:09;;;;;;;1999.90;999.90;;;12.20;84.30;;;;;;5094417;28;20034;-82
2022/07/18 02:36:39;;;;;;;1999.90;999.90;;;12.10;84.40;;;;;;5094651;28;20028;-82
2022/07/18 02:39:05;;;;;;;1999.90;999.90;;;12.10;84.90;;;;;;5086332;28;20554;-82
2022/07/18 02:41:31;;;;;;;1999.90;999.90;;;12.10;85.30;;;;;;5103168;28;20042;-81
2022/07/18 02:43:57;;;;;;;1999.90;999.90;;;12.10;84.60;;;;;;5083020;28;20113;-82
2022/07/18 02:46:22;;;;;;;1999.90;999.90;;;12.10;85.70;;;;;;5063282;28;20028;-81
2022/07/18 02:48:48;;;;;;;1999.90;999.90;;;12.10;86.70;;;;;;5085015;28;20052;-81
2022/07/18 02:51:14;;;;;;;1999.90;999.90;;;12.00;84.60;;;;;;5082399;28;20523;-82
2022/07/18 02:53:39;;;;;;;1999.90;999.90;;;12.00;85.40;;;;;;5081070;28;20525;-82
2022/07/18 02:56:05;;;;;;;1999.90;999.90;;;12.10;85.50;;;;;;5076863;28;20039;-82
2022/07/18 02:58:32;;;;;;;1999.90;999.90;;;12.10;83.90;;;;;;5093572;28;20038;-83
2022/07/18 03:00:57;;;;;;;1999.90;999.90;;;12.00;86.30;;;;;;5072377;28;20043;-83
2022/07/18 03:03:23;;;;;;;1999.90;999.90;;;12.00;85.60;;;;;;5074267;28;20028;-82
2022/07/18 03:05:49;;;;;;;1999.90;999.90;;;11.90;86.50;;;;;;5077814;28;20028;-82
2022/07/18 03:08:15;;;;;;;1999.90;999.90;;;11.90;86.10;;;;;;5092260;28;20449;-82
2022/07/18 03:10:40;;;;;;;1999.90;999.90;;;11.90;85.70;;;;;;5096939;28;20494;-83
2022/07/18 03:13:06;;;;;;;1999.90;999.90;;;11.90;85.70;;;;;;5083426;28;20408;-81
2022/07/18 03:15:32;;;;;;;1999.90;999.90;;;11.80;86.60;;;;;;5087105;28;20451;-82
2022/07/18 03:17:57;;;;;;;1999.90;999.90;;;11.80;86.90;;;;;;5101199;28;20043;-82
2022/07/18 03:20:23;;;;;;;1999.90;999.90;;;11.80;86.30;;;;;;5083592;28;20024;-82
2022/07/18 03:22:48;;;;;;;1999.90;999.90;;;11.60;87.60;;;;;;5099131;28;20092;-83
2022/07/18 03:25:14;;;;;;;1999.90;999.90;;;11.60;87.60;;;;;;5062874;28;20116;-82
2022/07/18 03:27:40;;;;;;;1999.90;999.90;;;11.60;88.90;;;;;;5075444;28;20032;-82
2022/07/18 03:30:06;;;;;;;1999.90;999.90;;;11.50;88.90;;;;;;5076712;28;20032;-82
2022/07/18 03:32:32;;;;;;;1999.90;999.90;;;11.40;89.90;;;;;;5089108;28;20046;-82
2022/07/18 03:34:57;;;;;;;1999.90;999.90;;;11.50;90.30;;;;;;5092102;28;20035;-83
2022/07/18 03:37:23;;;;;;;1999.90;999.90;;;11.50;90.00;;;;;;5048736;28;20509;-82
2022/07/18 03:39:48;;;;;;;1999.90;999.90;;;11.60;89.30;;;;;;5097512;28;20779;-82
2022/07/18 03:42:14;;;;;;;1999.90;999.90;;;11.60;87.90;;;;;;5063028;28;20028;-81
2022/07/18 03:44:40;;;;;;;1999.90;999.90;;;11.70;87.00;;;;;;5084432;28;20032;-81
2022/07/18 03:47:06;;;;;;;1999.90;999.90;;;11.70;87.70;;;;;;5101791;28;20043;-84
2022/07/18 03:49:31;;;;;;;1999.90;999.90;;;11.70;86.80;;;;;;5083417;28;20057;-82
2022/07/18 03:51:57;;;;;;;1999.90;999.90;;;11.70;86.20;;;;;;5062978;28;20028;-82
2022/07/18 03:54:23;;;;;;;1999.90;999.90;;;11.70;85.90;;;;;;5078931;28;20505;-82
2022/07/18 03:56:50;;;;;;;1999.90;999.90;;;11.80;85.20;;;;;;5097116;28;20035;-82
2022/07/18 03:59:15;;;;;;;1999.90;999.90;;;11.80;85.00;;;;;;5092183;28;20058;-82
2022/07/18 04:01:41;;;;;;;1999.90;999.90;;;11.80;85.70;;;;;;5092456;28;20566;-82
2022/07/18 04:04:07;;;;;;;1999.90;999.90;;;11.80;86.50;;;;;;5075839;28;20111;-82
2022/07/18 04:06:33;;;;;;;1999.90;999.90;;;11.80;86.10;;;;;;5072655;28;20062;-82
2022/07/18 04:08:58;;;;;;;1999.90;999.90;;;11.80;86.30;;;;;;5092176;28;20042;-82
2022/07/18 04:11:24;;;;;;;1999.90;999.90;;;11.90;84.70;;;;;;5105821;28;20031;-82
2022/07/18 04:13:51;;;;;;;1999.90;999.90;;;12.00;82.50;;;;;;5097695;28;20052;-81
2022/07/18 04:16:17;;;;;;;1999.90;999.90;;;12.10;79.90;;;;;;5099250;28;20095;-82
2022/07/18 04:18:43;;;;;;;1999.90;999.90;;;12.30;78.70;;;;;;5101830;28;20111;-82
2022/07/18 04:21:08;;;;;;;1999.90;999.90;;;12.50;79.60;;;;;;5061006;28;20039;-81
2022/07/18 04:23:34;;;;;;;1999.90;999.90;;;12.40;81.70;;;;;;5075527;28;20036;-84
2022/07/18 04:26:01;;;;;;;1999.90;999.90;;;12.40;82.90;;;;;;5075140;28;20688;-82
2022/07/18 04:28:27;;;;;;;1999.90;999.90;;;12.50;83.80;;;;;;5078100;28;20067;-82
2022/07/18 04:30:52;;;;;;;1999.90;999.90;;;12.60;82.60;;;;;;5092137;28;20063;-82
2022/07/18 04:33:18;;;;;;;1999.90;999.90;;;12.70;83.00;;;;;;5074653;28;20062;-82
2022/07/18 04:35:44;;;;;;;1999.90;999.90;;;12.90;81.60;;;;;;5086156;28;20450;-83
2022/07/18 04:38:10;;;;;;;1999.90;999.90;;;12.90;82.30;;;;;;5084543;28;20107;-82
2022/07/18 04:40:37;;;;;;;1999.90;999.90;;;13.00;82.10;;;;;;5081480;28;20076;-82
2022/07/18 04:43:03;;;;;;;1999.90;999.90;;;13.10;82.70;;;;;;5098373;28;20037;-82
2022/07/18 04:45:29;;;;;;;1999.90;999.90;;;13.20;83.00;;;;;;5073491;28;20522;-81
2022/07/18 04:47:55;;;;;;;1999.90;999.90;;;13.50;79.60;;;;;;5100810;28;20051;-84
2022/07/18 04:50:22;;;;;;;1999.90;999.90;;;13.70;76.00;;;;;;5076458;28;20024;-80
2022/07/18 04:52:49;;;;;;;1999.90;999.90;;;13.80;70.60;;;;;;5095795;28;20099;-80
2022/07/18 04:55:17;;;;;;;1999.90;999.90;;;14.00;72.70;;;;;;5097119;28;20036;-81
2022/07/18 04:57:43;;;;;;;1999.90;999.90;;;14.10;74.90;;;;;;5076834;28;20083;-81
2022/07/18 05:00:16;;;;;;;1999.90;999.90;;;14.20;76.70;;;;;;5094638;28;20533;-80
2022/07/18 05:02:43;;;;;;;1999.90;999.90;;;14.20;76.10;;;;;;5075304;28;20048;-81
2022/07/18 05:05:10;;;;;;;1999.90;999.90;;;14.30;76.80;;;;;;5092702;28;20581;-85
2022/07/18 05:07:37;;;;;;;1999.90;999.90;;;14.50;76.70;;;;;;5046373;28;20120;-84
2022/07/18 05:10:07;;;;;;;1999.90;999.90;;;14.60;76.30;;;;;;5093725;28;20063;-85
2022/07/18 05:12:33;;;;;;;1999.90;999.90;;;14.80;74.90;;;;;;5081224;28;20025;-85
2022/07/18 05:14:59;;;;;;;1999.90;999.90;;;15.10;72.20;;;;;;5080352;28;20078;-86
2022/07/18 05:17:24;;;;;;;1999.90;999.90;;;15.20;71.20;;;;;;5061925;28;20379;-86
2022/07/18 05:19:50;;;;;;;1999.90;999.90;;;15.30;72.40;;;;;;5098215;28;20487;-84
2022/07/18 05:22:16;;;;;;;1999.90;999.90;;;15.50;73.70;;;;;;5076063;28;20123;-84
2022/07/18 05:24:41;;;;;;;1999.90;999.90;;;15.50;73.90;;;;;;5061220;28;20118;-84
2022/07/18 05:27:07;;;;;;;1999.90;999.90;;;15.60;73.00;;;;;;5081044;28;20596;-85
2022/07/18 05:29:33;;;;;;;1999.90;999.90;;;15.70;74.60;;;;;;5061538;28;20077;-82
2022/07/18 05:31:59;;;;;;;1999.90;999.90;;;15.90;76.00;;;;;;5078090;28;20403;-90
2022/07/18 05:34:24;;;;;;;1999.90;999.90;;;16.00;72.80;;;;;;5095875;28;20030;-86
2022/07/18 05:36:50;;;;;;;1999.90;999.90;;;16.00;66.30;;;;;;5057107;28;20059;-86
2022/07/18 05:39:16;;;;;;;1999.90;999.90;;;16.10;65.40;;;;;;5096099;28;20055;-86
2022/07/18 05:41:41;;;;;;;1999.90;999.90;;;16.20;64.90;;;;;;5062864;28;20032;-86
2022/07/18 05:44:07;;;;;;;1999.90;999.90;;;16.30;62.40;;;;;;5066977;28;20751;-87
2022/07/18 05:46:33;;;;;;;1999.90;999.90;;;16.40;63.20;;;;;;5079819;28;20312;-86
2022/07/18 05:48:58;;;;;;;1999.90;999.90;;;16.40;64.00;;;;;;5098561;28;20028;-86
2022/07/18 05:51:24;;;;;;;1999.90;999.90;;;16.50;62.80;;;;;;5069352;28;20115;-87
2022/07/18 05:53:50;;;;;;;1999.90;999.90;;;16.60;61.80;;;;;;5095076;28;20037;-88
2022/07/18 05:56:15;;;;;;;1999.90;999.90;;;16.70;61.70;;;;;;5098433;28;20058;-88
2022/07/18 05:58:41;;;;;;;1999.90;999.90;;;16.70;65.10;;;;;;5074592;28;20057;-83
2022/07/18 06:01:07;;;;;;;1999.90;999.90;;;16.80;60.50;;;;;;5074447;28;20039;-85
2022/07/18 06:03:33;;;;;;;1999.90;999.90;;;16.90;59.20;;;;;;5072249;28;20035;-85
2022/07/18 06:05:58;;;;;;;1999.90;999.90;;;16.90;58.20;;;;;;5073427;28;20407;-84
2022/07/18 06:08:24;;;;;;;1999.90;999.90;;;17.10;57.70;;;;;;5092707;28;20107;-88
2022/07/18 06:10:50;;;;;;;1999.90;999.90;;;17.20;56.90;;;;;;5069030;28;20036;-89
2022/07/18 06:13:16;;;;;;;1999.90;999.90;;;17.30;55.00;;;;;;5055920;28;20556;-83
2022/07/18 06:15:42;;;;;;;1999.90;999.90;;;17.30;55.50;;;;;;5062160;28;20028;-84
2022/07/18 06:18:07;;;;;;;1999.90;999.90;;;17.40;54.50;;;;;;5099730;28;20036;-83
2022/07/18 06:20:33;;;;;;;1999.90;999.90;;;17.30;54.50;;;;;;5079661;28;20509;-84
2022/07/18 06:22:58;;;;;;;1999.90;999.90;;;17.50;54.90;;;;;;5081540;28;20573;-85
2022/07/18 06:25:24;;;;;;;1999.90;999.90;;;17.60;55.10;;;;;;5079243;28;20035;-85
2022/07/18 06:27:50;;;;;;;1999.90;999.90;;;17.70;56.10;;;;;;5061728;28;20032;-84
2022/07/18 06:30:15;;;;;;;1999.90;999.90;;;17.80;55.20;;;;;;5071250;28;20479;-84
2022/07/18 06:32:41;;;;;;;1999.90;999.90;;;18.00;53.50;;;;;;5070660;28;20494;-86
2022/07/18 06:35:08;;;;;;;1999.90;999.90;;;18.00;53.40;;;;;;5090783;28;20039;-84
2022/07/18 06:37:33;;;;;;;1999.90;999.90;;;18.10;52.70;;;;;;5088559;28;20032;-84
2022/07/18 06:39:59;;;;;;;1999.90;999.90;;;18.20;53.50;;;;;;5088280;28;20039;-84
2022/07/18 06:42:25;;;;;;;1999.90;999.90;;;18.30;52.70;;;;;;5082710;28;20035;-85
2022/07/18 06:44:50;;;;;;;1999.90;999.90;;;18.40;50.60;;;;;;5088938;28;20032;-84
2022/07/18 06:47:16;;;;;;;1999.90;999.90;;;18.50;50.80;;;;;;5079996;28;20032;-85
2022/07/18 06:49:41;;;;;;;1999.90;999.90;;;18.60;53.00;;;;;;5074842;28;20488;-85
2022/07/18 06:52:11;;;;;;;1999.90;999.90;;;18.80;50.50;;;;;;5073873;28;20491;-85
2022/07/18 06:54:38;;;;;;;1999.90;999.90;;;18.80;53.40;;;;;;5065190;28;20483;-85
2022/07/18 06:57:06;;;;;;;1999.90;999.90;;;18.90;51.90;;;;;;5051229;28;20032;-85
2022/07/18 06:59:32;;;;;;;1999.90;999.90;;;19.10;53.20;;;;;;5082814;28;20051;-85
2022/07/18 07:01:58;;;;;;;1999.90;999.90;;;19.20;49.60;;;;;;5061320;28;20067;-84
2022/07/18 07:04:24;;;;;;;1999.90;999.90;;;19.30;48.20;;;;;;5081725;28;20032;-85
2022/07/18 07:06:49;;;;;;;1999.90;999.90;;;19.30;47.20;;;;;;5063950;28;20048;-86
2022/07/18 07:09:15;;;;;;;1999.90;999.90;;;19.50;48.50;;;;;;5065305;28;20032;-86
2022/07/18 07:11:41;;;;;;;1999.90;999.90;;;19.60;49.40;;;;;;5061117;28;20475;-87
2022/07/18 07:14:06;;;;;;;1999.90;999.90;;;19.70;50.90;;;;;;5090312;28;20410;-87
2022/07/18 07:16:32;;;;;;;1999.90;999.90;;;19.90;46.30;;;;;;5099420;28;20065;-86
2022/07/18 07:18:58;;;;;;;1999.90;999.90;;;20.00;46.60;;;;;;5057618;28;20039;-87
2022/07/18 07:21:23;;;;;;;1999.90;999.90;;;20.10;47.40;;;;;;5059229;28;20138;-86
2022/07/18 07:23:49;;;;;;;1999.90;999.90;;;20.30;50.00;;;;;;5058349;28;20613;-87
2022/07/18 07:26:14;;;;;;;1999.90;999.90;;;20.30;47.70;;;;;;5062207;28;20827;-87
2022/07/18 07:28:40;;;;;;;1999.90;999.90;;;20.50;48.50;;;;;;5084038;28;20406;-86
2022/07/18 07:31:06;;;;;;;1999.90;999.90;;;20.70;48.20;;;;;;5090480;28;20128;-87
2022/07/18 07:33:31;;;;;;;1999.90;999.90;;;20.70;47.40;;;;;;5072378;28;20651;-87
2022/07/18 07:35:57;;;;;;;1999.90;999.90;;;20.80;47.10;;;;;;5073587;28;20043;-87
2022/07/18 07:38:27;;;;;;;1999.90;999.90;;;21.00;48.20;;;;;;5093962;28;20443;-87
2022/07/18 07:40:54;;;;;;;1999.90;999.90;;;21.20;48.60;;;;;;5102048;28;20539;-87
2022/07/18 07:43:19;;;;;;;1999.90;999.90;;;21.30;47.80;;;;;;5080297;28;20046;-87
2022/07/18 07:45:50;;;;;;;1999.90;999.90;;;21.50;47.00;;;;;;5080481;28;20027;-87
2022/07/18 07:48:16;;;;;;;1999.90;999.90;;;21.70;46.60;;;;;;5094114;28;20024;-87
2022/07/18 07:50:42;;;;;;;1999.90;999.90;;;21.90;44.80;;;;;;5101501;28;20038;-87
2022/07/18 07:53:08;;;;;;;1999.90;999.90;;;21.90;44.00;;;;;;5072932;28;20392;-87
2022/07/18 07:55:34;;;;;;;1999.90;999.90;;;22.00;42.90;;;;;;5093912;28;20462;-87
2022/07/18 07:58:00;;;;;;;1999.90;999.90;;;22.00;45.20;;;;;;5075812;28;20020;-86
2022/07/18 08:00:27;;;;;;;1999.90;999.90;;;22.00;42.80;;;;;;5091439;28;20025;-87
2022/07/18 08:03:02;;;;;;;1999.90;999.90;;;22.10;42.80;;;;;;5092974;28;20051;-87
2022/07/18 08:05:31;;;;;;;1999.90;999.90;;;22.20;47.20;;;;;;5067700;28;20024;-87
2022/07/18 08:07:58;;;;;;;1999.90;999.90;;;22.40;46.70;;;;;;5074346;28;20039;-87
2022/07/18 08:10:23;;;;;;;1999.90;999.90;;;22.50;43.00;;;;;;5081984;28;20023;-87
2022/07/18 08:12:49;;;;;;;1999.90;999.90;;;22.60;44.20;;;;;;5082130;28;20491;-87
2022/07/18 08:15:15;;;;;;;1999.90;999.90;;;23.00;43.50;;;;;;5053929;28;20066;-87
2022/07/18 08:17:41;;;;;;;1999.90;999.90;;;23.00;41.70;;;;;;5054194;28;20242;-87
2022/07/18 08:20:07;;;;;;;1999.90;999.90;;;23.10;42.10;;;;;;5079547;28;20479;-87
2022/07/18 08:22:33;;;;;;;1999.90;999.90;;;23.30;41.60;;;;;;5078875;28;20836;-86
2022/07/18 08:24:58;;;;;;;1999.90;999.90;;;23.50;40.80;;;;;;5073795;28;20060;-87
2022/07/18 08:27:24;;;;;;;1999.90;999.90;;;23.50;39.70;;;;;;5054334;28;20043;-87
2022/07/18 08:29:50;;;;;;;1999.90;999.90;;;23.70;40.70;;;;;;5085244;28;20036;-86
2022/07/18 08:32:15;;;;;;;1999.90;999.90;;;23.70;38.40;;;;;;5046389;28;20036;-85
2022/07/18 08:34:41;;;;;;;1999.90;999.90;;;23.80;41.70;;;;;;5067858;28;20079;-87
2022/07/18 08:37:06;;;;;;;1999.90;999.90;;;24.00;37.40;;;;;;5089645;28;20020;-88
2022/07/18 08:39:32;;;;;;;1999.90;999.90;;;23.90;39.90;;;;;;5071534;28;20484;-87
2022/07/18 08:42:00;;;;;;;1999.90;999.90;;;24.20;38.10;;;;;;5083838;28;20040;-87
2022/07/18 08:44:28;;;;;;;1999.90;999.90;;;24.50;38.40;;;;;;5079911;28;20025;-87
2022/07/18 08:46:57;;;;;;;1999.90;999.90;;;24.50;35.90;;;;;;5100252;28;20028;-87
2022/07/18 08:49:23;;;;;;;1999.90;999.90;;;24.60;35.80;;;;;;5080397;28;20024;-87
2022/07/18 08:51:49;;;;;;;1999.90;999.90;;;24.80;36.10;;;;;;5098665;28;20531;-87
2022/07/18 08:54:15;;;;;;;1999.90;999.90;;;24.90;36.50;;;;;;5080395;28;20027;-87
2022/07/18 08:56:41;;;;;;;1999.90;999.90;;;25.10;35.50;;;;;;5080054;28;20119;-87
2022/07/18 08:59:07;;;;;;;1999.90;999.90;;;25.40;33.70;;;;;;5079702;28;20108;-86
2022/07/18 09:01:33;;;;;;;1999.90;999.90;;;25.40;34.60;;;;;;5075217;28;20406;-87
2022/07/18 09:04:18;;;;;;;1999.90;999.90;;;25.50;35.40;;;;;;5094067;28;20063;-87
2022/07/18 09:06:52;;;;;;;1999.90;999.90;;;25.80;33.90;;;;;;5090711;28;20084;-87
2022/07/18 09:09:18;;;;;;;1999.90;999.90;;;26.00;34.70;;;;;;5106085;28;20024;-87
2022/07/18 09:12:00;;;;;;;1999.90;999.90;;;26.40;33.80;;;;;;5095287;28;20028;-85
2022/07/18 09:14:32;;;;;;;1999.90;999.90;;;26.60;31.10;;;;;;5059503;28;20059;-85
2022/07/18 09:17:24;;;;;;;1999.90;999.90;;;26.60;34.40;;;;;;5098526;28;20034;-87
2022/07/18 09:20:14;;;;;;;1999.90;999.90;;;26.20;30.70;;;;;;5072911;28;20015;-87
2022/07/18 09:22:42;;;;;;;1999.90;999.90;;;26.30;29.50;;;;;;5078321;28;20027;-90
2022/07/18 09:25:17;;;;;;;1999.90;999.90;;;26.60;29.00;;;;;;5075803;28;20106;-93
2022/07/18 09:27:45;;;;;;;1999.90;999.90;;;26.90;30.60;;;;;;5076224;28;20036;-86
2022/07/18 09:30:29;;;;;;;1999.90;999.90;;;27.10;29.70;;;;;;5089967;28;20027;-86
2022/07/18 09:33:16;;;;;;;1999.90;999.90;;;27.20;26.70;;;;;;5095150;28;20039;-86
2022/07/18 09:35:43;;;;;;;1999.90;999.90;;;27.30;29.00;;;;;;5092040;28;20020;-85
2022/07/18 09:38:10;;;;;;;1999.90;999.90;;;27.30;27.20;;;;;;5096611;28;20059;-87
2022/07/18 09:40:38;;;;;;;1999.90;999.90;;;27.70;26.30;;;;;;5080589;28;20031;-85
2022/07/18 09:43:12;;;;;;;1999.90;999.90;;;28.00;29.00;;;;;;5100308;28;20042;-84
2022/07/18 09:45:41;;;;;;;1999.90;999.90;;;27.90;25.00;;;;;;5083926;28;20534;-85
2022/07/18 09:48:12;;;;;;;1999.90;999.90;;;27.90;24.70;;;;;;5100669;28;20039;-87
2022/07/18 09:51:01;;;;;;;1999.90;999.90;;;28.20;25.00;;;;;;5077791;28;20035;-85
2022/07/18 09:53:32;;;;;;;1999.90;999.90;;;28.10;25.20;;;;;;5078458;28;20056;-85
2022/07/18 09:56:03;;;;;;;1999.90;999.90;;;28.40;23.50;;;;;;5070176;28;20271;-85
2022/07/18 09:58:38;;;;;;;1999.90;999.90;;;28.60;27.40;;;;;;5060727;28;20020;-85
2022/07/18 10:01:07;;;;;;;1999.90;999.90;;;28.80;27.90;;;;;;5092254;28;20028;-84
2022/07/18 10:03:33;;;;;;;1999.90;999.90;;;28.70;24.80;;;;;;5077821;28;20110;-86
2022/07/18 10:06:00;;;;;;;1999.90;999.90;;;28.90;24.90;;;;;;5073066;28;20786;-86
2022/07/18 10:08:29;;;;;;;1999.90;999.90;;;29.00;26.10;;;;;;5085048;28;20037;-85
2022/07/18 10:10:59;;;;;;;1999.90;999.90;;;29.10;23.20;;;;;;5084824;28;20051;-83
2022/07/18 10:13:26;;;;;;;1999.90;999.90;;;29.20;24.00;;;;;;5063806;28;20028;-86
2022/07/18 10:15:52;;;;;;;1999.90;999.90;;;29.50;23.20;;;;;;5060485;28;20039;-86
2022/07/18 10:18:20;;;;;;;1999.90;999.90;;;29.40;24.30;;;;;;5078661;28;20032;-86
2022/07/18 10:20:56;;;;;;;1999.90;999.90;;;29.60;22.50;;;;;;5074683;28;20509;-87
2022/07/18 10:23:24;;;;;;;1999.90;999.90;;;29.40;23.70;;;;;;5080136;28;20074;-86
2022/07/18 10:26:14;;;;;;;1999.90;999.90;;;29.70;26.20;;;;;;5095902;28;20028;-88
2022/07/18 10:28:55;;;;;;;1999.90;999.90;;;29.60;23.70;;;;;;5051511;28;20032;-89
2022/07/18 10:31:59;;;;;;;1999.90;999.90;;;29.40;22.10;;;;;;5074533;28;20065;-87
2022/07/18 10:34:32;;;;;;;1999.90;999.90;;;29.60;22.00;;;;;;5089142;28;20032;-87
2022/07/18 10:37:02;;;;;;;1999.90;999.90;;;29.40;20.80;;;;;;5086119;28;20103;-86
2022/07/18 10:39:36;;;;;;;1999.90;999.90;;;29.10;25.30;;;;;;5095089;28;20024;-86
2022/07/18 10:42:02;;;;;;;1999.90;999.90;;;29.50;21.90;;;;;;5097568;28;20032;-85
2022/07/18 10:44:28;;;;;;;1999.90;999.90;;;29.40;23.70;;;;;;5068042;28;20099;-87
2022/07/18 10:47:03;;;;;;;1999.90;999.90;;;29.50;20.80;;;;;;5084378;28;20028;-86
2022/07/18 10:49:47;;;;;;;1999.90;999.90;;;29.60;22.80;;;;;;5072137;28;20042;-87
2022/07/18 10:52:27;;;;;;;1999.90;999.90;;;29.70;22.70;;;;;;5091763;28;20035;-88
2022/07/18 10:55:02;;;;;;;1999.90;999.90;;;29.80;22.70;;;;;;5070934;28;20479;-87
2022/07/18 10:57:33;;;;;;;1999.90;999.90;;;30.10;18.70;;;;;;5087749;28;20366;-87
2022/07/18 11:00:08;;;;;;;1999.90;999.90;;;30.50;18.40;;;;;;5071044;28;20487;-87
2022/07/18 11:02:42;;;;;;;1999.90;999.90;;;30.10;18.40;;;;;;5085171;28;20130;-84
2022/07/18 11:05:22;;;;;;;1999.90;999.90;;;30.90;19.50;;;;;;5086316;28;20265;-84
2022/07/18 11:07:57;;;;;;;1999.90;999.90;;;31.90;17.70;;;;;;5092650;28;20089;-89
2022/07/18 11:11:01;;;;;;;1999.90;999.90;;;32.30;17.30;;;;;;5093206;28;20122;-85
2022/07/18 11:13:33;;;;;;;1999.90;999.90;;;32.40;19.50;;;;;;5074169;28;20044;-85
2022/07/18 11:16:21;;;;;;;1999.90;999.90;;;32.70;21.00;;;;;;5071051;28;20024;-84
2022/07/18 11:18:47;;;;;;;1999.90;999.90;;;33.50;17.40;;;;;;5089458;28;20042;-82
2022/07/18 11:21:26;;;;;;;1999.90;999.90;;;33.20;19.30;;;;;;5057486;28;20017;-87
2022/07/18 11:24:09;;;;;;;1999.90;999.90;;;33.10;19.20;;;;;;5072153;28;20255;-86
2022/07/18 11:26:38;;;;;;;1999.90;999.90;;;33.10;19.20;;;;;;5089840;28;20113;-87
2022/07/18 11:29:09;;;;;;;1999.90;999.90;;;33.00;16.40;;;;;;5091029;28;20599;-86
2022/07/18 11:31:55;;;;;;;1999.90;999.90;;;33.50;16.30;;;;;;5087471;28;20036;-87
2022/07/18 11:34:22;;;;;;;1999.90;999.90;;;33.60;16.20;;;;;;5089516;28;20111;-87
2022/07/18 11:36:48;;;;;;;1999.90;999.90;;;34.10;15.70;;;;;;5088883;28;20023;-87
2022/07/18 11:39:26;;;;;;;1999.90;999.90;;;34.10;15.10;;;;;;5066322;28;20061;-87
2022/07/18 11:41:52;;;;;;;1999.90;999.90;;;34.30;17.50;;;;;;5093639;28;20032;-87
2022/07/18 11:44:26;;;;;;;1999.90;999.90;;;33.50;17.30;;;;;;5077585;28;20051;-88
2022/07/18 11:47:07;;;;;;;1999.90;999.90;;;33.30;18.20;;;;;;5101253;28;20024;-87
2022/07/18 11:49:34;;;;;;;1999.90;999.90;;;33.90;17.80;;;;;;5073681;28;20050;-86
2022/07/18 11:51:59;;;;;;;1999.90;999.90;;;34.40;16.50;;;;;;5091479;28;20031;-87
2022/07/18 11:54:28;;;;;;;1999.90;999.90;;;36.50;16.00;;;;;;5095541;28;20032;-87
2022/07/18 11:56:54;;;;;;;1999.90;999.90;;;36.60;14.10;;;;;;5090607;28;20102;-87
2022/07/18 11:59:22;;;;;;;1999.90;999.90;;;35.40;14.70;;;;;;5072252;28;20032;-86
2022/07/18 12:01:55;;;;;;;1999.90;999.90;;;36.00;14.50;;;;;;5086285;28;20165;-88
2022/07/18 12:04:23;;;;;;;1999.90;999.90;;;34.90;17.90;;;;;;5062009;28;20031;-87
2022/07/18 12:07:15;;;;;;;1999.90;999.90;;;35.00;15.50;;;;;;5094133;28;20160;-87
2022/07/18 12:09:41;;;;;;;1999.90;999.90;;;34.30;15.20;;;;;;5099726;28;20371;-86